sensor_id;sensor_type;location;lat;lon;timestamp;temperature;humidity
20284;DHT22;10301;50.832;4.080;2023-04-15T00:00:54;11.40;7.30
20284;DHT22;10301;50.832;4.080;2023-04-15T00:03:20;11.60;7.70
20284;DHT22;10301;50.832;4.080;2023-04-15T00:05:47;11.80;1.00
20284;DHT22;10301;50.832;4.080;2023-04-15T00:08:12;11.50;5.70
20284;DHT22;10301;50.832;4.080;2023-04-15T00:10:38;11.50;13.40
20284;DHT22;10301;50.832;4.080;2023-04-15T00:13:03;11.50;16.50
20284;DHT22;10301;50.832;4.080;2023-04-15T00:15:29;11.60;8.50
20284;DHT22;10301;50.832;4.080;2023-04-15T00:17:55;11.60;9.00
20284;DHT22;10301;50.832;4.080;2023-04-15T00:20:21;11.60;12.70
20284;DHT22;10301;50.832;4.080;2023-04-15T00:22:46;11.40;13.20
20284;DHT22;10301;50.832;4.080;2023-04-15T00:25:13;11.30;21.70
20284;DHT22;10301;50.832;4.080;2023-04-15T00:27:39;11.40;23.00
20284;DHT22;10301;50.832;4.080;2023-04-15T00:30:06;11.60;17.40
20284;DHT22;10301;50.832;4.080;2023-04-15T00:32:31;11.40;13.20
20284;DHT22;10301;50.832;4.080;2023-04-15T00:34:57;11.40;21.80
20284;DHT22;10301;50.832;4.080;2023-04-15T00:37:23;11.50;21.60
20284;DHT22;10301;50.832;4.080;2023-04-15T00:39:48;11.60;19.80
20284;DHT22;10301;50.832;4.080;2023-04-15T00:42:14;11.50;7.10
20284;DHT22;10301;50.832;4.080;2023-04-15T00:44:40;11.50;13.80
20284;DHT22;10301;50.832;4.080;2023-04-15T00:47:07;11.40;14.10
20284;DHT22;10301;50.832;4.080;2023-04-15T00:49:33;11.50;7.70
20284;DHT22;10301;50.832;4.080;2023-04-15T00:51:58;11.40;5.10
20284;DHT22;10301;50.832;4.080;2023-04-15T00:54:24;11.60;2.60
20284;DHT22;10301;50.832;4.080;2023-04-15T00:56:50;11.70;1.80
20284;DHT22;10301;50.832;4.080;2023-04-15T00:59:16;11.60;1.00
20284;DHT22;10301;50.832;4.080;2023-04-15T01:01:43;11.60;1.00
20284;DHT22;10301;50.832;4.080;2023-04-15T01:04:09;11.70;4.70
20284;DHT22;10301;50.832;4.080;2023-04-15T01:06:36;11.80;1.40
20284;DHT22;10301;50.832;4.080;2023-04-15T01:09:02;11.80;1.00
20284;DHT22;10301;50.832;4.080;2023-04-15T01:11:28;11.80;2.80
20284;DHT22;10301;50.832;4.080;2023-04-15T01:13:55;11.70;7.10
20284;DHT22;10301;50.832;4.080;2023-04-15T01:16:23;11.90;9.40
20284;DHT22;10301;50.832;4.080;2023-04-15T01:18:48;12.00;1.00
20284;DHT22;10301;50.832;4.080;2023-04-15T01:21:14;12.00;1.00
20284;DHT22;10301;50.832;4.080;2023-04-15T01:23:40;11.90;1.00
20284;DHT22;10301;50.832;4.080;2023-04-15T01:26:06;11.60;16.60
20284;DHT22;10301;50.832;4.080;2023-04-15T01:28:33;11.50;22.80
20284;DHT22;10301;50.832;4.080;2023-04-15T01:31:10;11.10;26.60
20284;DHT22;10301;50.832;4.080;2023-04-15T01:33:37;10.90;42.60
20284;DHT22;10301;50.832;4.080;2023-04-15T01:36:04;10.80;37.20
20284;DHT22;10301;50.832;4.080;2023-04-15T01:38:31;10.70;47.30
20284;DHT22;10301;50.832;4.080;2023-04-15T01:40:57;10.90;45.50
20284;DHT22;10301;50.832;4.080;2023-04-15T01:43:24;10.90;39.80
20284;DHT22;10301;50.832;4.080;2023-04-15T01:45:50;10.70;45.10
20284;DHT22;10301;50.832;4.080;2023-04-15T01:48:16;10.80;49.70
20284;DHT22;10301;50.832;4.080;2023-04-15T01:50:42;10.80;46.40
20284;DHT22;10301;50.832;4.080;2023-04-15T01:53:08;10.40;53.60
20284;DHT22;10301;50.832;4.080;2023-04-15T01:55:34;10.20;67.10
20284;DHT22;10301;50.832;4.080;2023-04-15T01:57:59;10.30;65.20
20284;DHT22;10301;50.832;4.080;2023-04-15T02:00:25;10.40;66.40
20284;DHT22;10301;50.832;4.080;2023-04-15T02:02:51;10.60;59.40
20284;DHT22;10301;50.832;4.080;2023-04-15T02:05:17;10.60;58.30
20284;DHT22;10301;50.832;4.080;2023-04-15T02:07:44;10.60;50.40
20284;DHT22;10301;50.832;4.080;2023-04-15T02:10:10;10.80;47.30
20284;DHT22;10301;50.832;4.080;2023-04-15T02:12:38;10.90;27.80
20284;DHT22;10301;50.832;4.080;2023-04-15T02:15:05;11.00;22.00
20284;DHT22;10301;50.832;4.080;2023-04-15T02:17:34;10.90;13.50
20284;DHT22;10301;50.832;4.080;2023-04-15T02:20:00;10.80;36.30
20284;DHT22;10301;50.832;4.080;2023-04-15T02:22:26;10.90;22.60
20284;DHT22;10301;50.832;4.080;2023-04-15T02:24:52;10.90;15.50
20284;DHT22;10301;50.832;4.080;2023-04-15T02:27:18;11.10;8.70
20284;DHT22;10301;50.832;4.080;2023-04-15T02:29:44;11.10;1.00
20284;DHT22;10301;50.832;4.080;2023-04-15T02:32:11;11.10;1.00
20284;DHT22;10301;50.832;4.080;2023-04-15T02:34:38;11.20;1.00
20284;DHT22;10301;50.832;4.080;2023-04-15T02:37:06;11.10;1.00
20284;DHT22;10301;50.832;4.080;2023-04-15T02:39:32;11.00;14.00
20284;DHT22;10301;50.832;4.080;2023-04-15T02:41:58;11.00;24.60
20284;DHT22;10301;50.832;4.080;2023-04-15T02:44:25;11.10;21.80
20284;DHT22;10301;50.832;4.080;2023-04-15T02:46:52;11.10;27.00
20284;DHT22;10301;50.832;4.080;2023-04-15T02:49:19;11.10;31.90
20284;DHT22;10301;50.832;4.080;2023-04-15T02:51:45;11.20;23.70
20284;DHT22;10301;50.832;4.080;2023-04-15T02:54:20;11.30;21.60
20284;DHT22;10301;50.832;4.080;2023-04-15T02:56:50;11.50;10.10
20284;DHT22;10301;50.832;4.080;2023-04-15T02:59:16;11.60;6.80
20284;DHT22;10301;50.832;4.080;2023-04-15T03:01:42;11.50;5.10
20284;DHT22;10301;50.832;4.080;2023-04-15T03:04:08;11.40;13.70
20284;DHT22;10301;50.832;4.080;2023-04-15T03:06:34;11.30;19.40
20284;DHT22;10301;50.832;4.080;2023-04-15T03:09:00;11.40;25.30
20284;DHT22;10301;50.832;4.080;2023-04-15T03:11:27;11.30;28.80
20284;DHT22;10301;50.832;4.080;2023-04-15T03:13:53;11.30;37.40
20284;DHT22;10301;50.832;4.080;2023-04-15T03:16:19;11.20;41.10
20284;DHT22;10301;50.832;4.080;2023-04-15T03:18:45;11.20;34.70
20284;DHT22;10301;50.832;4.080;2023-04-15T03:21:11;11.20;25.40
20284;DHT22;10301;50.832;4.080;2023-04-15T03:23:37;11.10;21.90
20284;DHT22;10301;50.832;4.080;2023-04-15T03:26:03;10.80;39.50
20284;DHT22;10301;50.832;4.080;2023-04-15T03:28:30;10.60;47.20
20284;DHT22;10301;50.832;4.080;2023-04-15T03:30:57;10.60;42.00
20284;DHT22;10301;50.832;4.080;2023-04-15T03:33:22;10.50;58.40
20284;DHT22;10301;50.832;4.080;2023-04-15T03:35:49;10.60;52.20
20284;DHT22;10301;50.832;4.080;2023-04-15T03:38:16;10.60;48.60
20284;DHT22;10301;50.832;4.080;2023-04-15T03:40:42;10.60;56.70
20284;DHT22;10301;50.832;4.080;2023-04-15T03:43:07;10.90;38.50
20284;DHT22;10301;50.832;4.080;2023-04-15T03:45:33;10.90;35.60
20284;DHT22;10301;50.832;4.080;2023-04-15T03:47:59;10.80;39.70
20284;DHT22;10301;50.832;4.080;2023-04-15T03:50:24;10.60;54.40
20284;DHT22;10301;50.832;4.080;2023-04-15T03:52:50;10.50;54.10
20284;DHT22;10301;50.832;4.080;2023-04-15T03:55:16;10.50;61.30
20284;DHT22;10301;50.832;4.080;2023-04-15T03:57:41;10.60;60.60
20284;DHT22;10301;50.832;4.080;2023-04-15T04:00:08;10.70;63.30
20284;DHT22;10301;50.832;4.080;2023-04-15T04:02:35;10.50;59.10
20284;DHT22;10301;50.832;4.080;2023-04-15T04:05:00;10.30;68.30
20284;DHT22;10301;50.832;4.080;2023-04-15T04:07:26;10.00;80.30
20284;DHT22;10301;50.832;4.080;2023-04-15T04:09:52;9.60;91.60
20284;DHT22;10301;50.832;4.080;2023-04-15T04:12:17;9.30;98.80
20284;DHT22;10301;50.832;4.080;2023-04-15T04:14:43;9.50;99.90
20284;DHT22;10301;50.832;4.080;2023-04-15T04:17:09;9.50;99.30
20284;DHT22;10301;50.832;4.080;2023-04-15T04:19:35;9.40;99.70
20284;DHT22;10301;50.832;4.080;2023-04-15T04:22:00;9.30;99.90
20284;DHT22;10301;50.832;4.080;2023-04-15T04:24:26;9.20;99.90
20284;DHT22;10301;50.832;4.080;2023-04-15T04:26:52;9.50;99.90
20284;DHT22;10301;50.832;4.080;2023-04-15T04:29:17;9.60;99.90
20284;DHT22;10301;50.832;4.080;2023-04-15T04:31:43;9.60;99.90
20284;DHT22;10301;50.832;4.080;2023-04-15T04:34:09;9.70;99.90
20284;DHT22;10301;50.832;4.080;2023-04-15T04:36:34;9.40;99.90
20284;DHT22;10301;50.832;4.080;2023-04-15T04:39:00;9.50;99.90
20284;DHT22;10301;50.832;4.080;2023-04-15T04:41:26;9.50;99.90
20284;DHT22;10301;50.832;4.080;2023-04-15T04:43:51;9.60;99.90
20284;DHT22;10301;50.832;4.080;2023-04-15T04:46:17;9.90;99.90
20284;DHT22;10301;50.832;4.080;2023-04-15T04:48:43;9.90;98.00
20284;DHT22;10301;50.832;4.080;2023-04-15T04:51:09;9.90;97.60
20284;DHT22;10301;50.832;4.080;2023-04-15T04:53:35;9.90;97.50
20284;DHT22;10301;50.832;4.080;2023-04-15T04:56:02;9.80;97.30
20284;DHT22;10301;50.832;4.080;2023-04-15T04:58:27;9.80;98.00
20284;DHT22;10301;50.832;4.080;2023-04-15T05:00:53;10.00;98.80
20284;DHT22;10301;50.832;4.080;2023-04-15T05:03:19;10.10;97.50
20284;DHT22;10301;50.832;4.080;2023-04-15T05:05:46;10.00;97.10
20284;DHT22;10301;50.832;4.080;2023-04-15T05:08:13;9.90;97.50
20284;DHT22;10301;50.832;4.080;2023-04-15T05:10:39;9.90;98.00
20284;DHT22;10301;50.832;4.080;2023-04-15T05:13:05;10.10;96.60
20284;DHT22;10301;50.832;4.080;2023-04-15T05:15:31;10.10;96.20
20284;DHT22;10301;50.832;4.080;2023-04-15T05:17:57;10.30;95.60
20284;DHT22;10301;50.832;4.080;2023-04-15T05:20:23;10.30;93.00
20284;DHT22;10301;50.832;4.080;2023-04-15T05:22:48;10.20;93.40
20284;DHT22;10301;50.832;4.080;2023-04-15T05:25:14;10.30;93.20
20284;DHT22;10301;50.832;4.080;2023-04-15T05:27:40;10.40;92.60
20284;DHT22;10301;50.832;4.080;2023-04-15T05:30:07;10.40;92.90
20284;DHT22;10301;50.832;4.080;2023-04-15T05:32:33;10.60;90.20
20284;DHT22;10301;50.832;4.080;2023-04-15T05:34:58;10.80;81.20
20284;DHT22;10301;50.832;4.080;2023-04-15T05:37:24;10.90;74.30
20284;DHT22;10301;50.832;4.080;2023-04-15T05:39:50;10.90;72.60
20284;DHT22;10301;50.832;4.080;2023-04-15T05:42:16;10.90;71.40
20284;DHT22;10301;50.832;4.080;2023-04-15T05:44:42;10.90;72.90
20284;DHT22;10301;50.832;4.080;2023-04-15T05:47:07;10.90;73.60
20284;DHT22;10301;50.832;4.080;2023-04-15T05:49:34;10.90;73.60
20284;DHT22;10301;50.832;4.080;2023-04-15T05:52:00;11.00;73.90
20284;DHT22;10301;50.832;4.080;2023-04-15T05:54:26;11.10;70.40
20284;DHT22;10301;50.832;4.080;2023-04-15T05:56:52;11.10;73.10
20284;DHT22;10301;50.832;4.080;2023-04-15T05:59:18;11.10;70.70
20284;DHT22;10301;50.832;4.080;2023-04-15T06:01:44;11.30;68.40
20284;DHT22;10301;50.832;4.080;2023-04-15T06:04:09;11.30;64.00
20284;DHT22;10301;50.832;4.080;2023-04-15T06:06:36;11.50;62.60
20284;DHT22;10301;50.832;4.080;2023-04-15T06:09:03;11.60;61.40
20284;DHT22;10301;50.832;4.080;2023-04-15T06:11:28;11.70;59.00
20284;DHT22;10301;50.832;4.080;2023-04-15T06:13:54;11.60;59.80
20284;DHT22;10301;50.832;4.080;2023-04-15T06:16:21;11.60;63.30
20284;DHT22;10301;50.832;4.080;2023-04-15T06:18:47;11.90;57.90
20284;DHT22;10301;50.832;4.080;2023-04-15T06:21:13;12.00;47.90
20284;DHT22;10301;50.832;4.080;2023-04-15T06:23:39;11.90;38.90
20284;DHT22;10301;50.832;4.080;2023-04-15T06:26:06;12.00;39.90
20284;DHT22;10301;50.832;4.080;2023-04-15T06:28:31;12.10;33.00
20284;DHT22;10301;50.832;4.080;2023-04-15T06:30:57;12.30;35.20
20284;DHT22;10301;50.832;4.080;2023-04-15T06:33:23;12.40;29.30
20284;DHT22;10301;50.832;4.080;2023-04-15T06:35:48;12.50;20.80
20284;DHT22;10301;50.832;4.080;2023-04-15T06:38:14;12.50;15.80
20284;DHT22;10301;50.832;4.080;2023-04-15T06:40:40;12.50;18.90
20284;DHT22;10301;50.832;4.080;2023-04-15T06:43:06;12.60;13.30
20284;DHT22;10301;50.832;4.080;2023-04-15T06:45:32;12.70;6.50
20284;DHT22;10301;50.832;4.080;2023-04-15T06:47:58;12.70;1.00
20284;DHT22;10301;50.832;4.080;2023-04-15T06:50:23;12.60;4.70
20284;DHT22;10301;50.832;4.080;2023-04-15T06:52:49;12.70;3.90
20284;DHT22;10301;50.832;4.080;2023-04-15T06:55:15;12.80;1.00
20284;DHT22;10301;50.832;4.080;2023-04-15T06:57:40;12.90;1.00
20284;DHT22;10301;50.832;4.080;2023-04-15T07:00:06;13.10;1.00
20284;DHT22;10301;50.832;4.080;2023-04-15T07:02:33;13.10;1.00
20284;DHT22;10301;50.832;4.080;2023-04-15T07:04:58;13.20;1.00
20284;DHT22;10301;50.832;4.080;2023-04-15T07:07:24;13.20;1.00
20284;DHT22;10301;50.832;4.080;2023-04-15T07:09:50;13.30;1.00
20284;DHT22;10301;50.832;4.080;2023-04-15T07:12:18;13.40;1.00
20284;DHT22;10301;50.832;4.080;2023-04-15T07:14:43;13.30;1.00
20284;DHT22;10301;50.832;4.080;2023-04-15T07:17:09;13.20;1.00
20284;DHT22;10301;50.832;4.080;2023-04-15T07:19:36;13.20;1.00
20284;DHT22;10301;50.832;4.080;2023-04-15T07:22:02;13.40;1.00
20284;DHT22;10301;50.832;4.080;2023-04-15T07:24:28;13.30;1.00
20284;DHT22;10301;50.832;4.080;2023-04-15T07:26:54;13.40;1.00
20284;DHT22;10301;50.832;4.080;2023-04-15T07:29:23;12.40;1.00
20284;DHT22;10301;50.832;4.080;2023-04-15T07:31:49;12.10;1.00
20284;DHT22;10301;50.832;4.080;2023-04-15T07:34:15;11.50;1.00
20284;DHT22;10301;50.832;4.080;2023-04-15T07:36:41;11.30;5.90
20284;DHT22;10301;50.832;4.080;2023-04-15T07:39:07;11.50;4.40
20284;DHT22;10301;50.832;4.080;2023-04-15T07:41:33;11.80;1.00
20284;DHT22;10301;50.832;4.080;2023-04-15T07:43:59;11.90;1.00
20284;DHT22;10301;50.832;4.080;2023-04-15T07:46:24;11.60;1.00
20284;DHT22;10301;50.832;4.080;2023-04-15T07:48:52;11.90;1.00
20284;DHT22;10301;50.832;4.080;2023-04-15T07:51:18;12.30;1.00
20284;DHT22;10301;50.832;4.080;2023-04-15T07:53:45;12.60;1.00
20284;DHT22;10301;50.832;4.080;2023-04-15T07:56:11;13.00;1.00
20284;DHT22;10301;50.832;4.080;2023-04-15T07:58:37;13.50;1.00
20284;DHT22;10301;50.832;4.080;2023-04-15T08:01:04;13.80;1.00
20284;DHT22;10301;50.832;4.080;2023-04-15T08:03:29;13.40;1.00
20284;DHT22;10301;50.832;4.080;2023-04-15T08:05:56;13.00;1.00
20284;DHT22;10301;50.832;4.080;2023-04-15T08:08:21;12.70;1.00
20284;DHT22;10301;50.832;4.080;2023-04-15T08:10:47;12.40;1.00
20284;DHT22;10301;50.832;4.080;2023-04-15T08:13:13;12.30;1.00
20284;DHT22;10301;50.832;4.080;2023-04-15T08:15:39;12.30;1.00
20284;DHT22;10301;50.832;4.080;2023-04-15T08:18:04;12.50;1.00
20284;DHT22;10301;50.832;4.080;2023-04-15T08:20:30;12.60;1.00
20284;DHT22;10301;50.832;4.080;2023-04-15T08:22:56;12.60;1.00
20284;DHT22;10301;50.832;4.080;2023-04-15T08:25:22;13.00;1.00
20284;DHT22;10301;50.832;4.080;2023-04-15T08:27:48;13.30;1.00
20284;DHT22;10301;50.832;4.080;2023-04-15T08:30:14;13.00;1.00
20284;DHT22;10301;50.832;4.080;2023-04-15T08:32:41;12.80;1.00
20284;DHT22;10301;50.832;4.080;2023-04-15T08:35:10;12.60;1.00
20284;DHT22;10301;50.832;4.080;2023-04-15T08:37:36;12.50;1.00
20284;DHT22;10301;50.832;4.080;2023-04-15T08:40:02;12.50;1.00
20284;DHT22;10301;50.832;4.080;2023-04-15T08:42:37;12.10;1.00
20284;DHT22;10301;50.832;4.080;2023-04-15T08:45:08;12.30;1.00
20284;DHT22;10301;50.832;4.080;2023-04-15T08:47:37;12.30;1.00
20284;DHT22;10301;50.832;4.080;2023-04-15T08:50:05;12.20;1.00
20284;DHT22;10301;50.832;4.080;2023-04-15T08:52:33;12.40;1.00
20284;DHT22;10301;50.832;4.080;2023-04-15T08:55:01;12.30;1.00
20284;DHT22;10301;50.832;4.080;2023-04-15T08:57:30;12.20;1.00
20284;DHT22;10301;50.832;4.080;2023-04-15T08:59:56;12.50;1.00
20284;DHT22;10301;50.832;4.080;2023-04-15T09:02:23;12.40;1.00
20284;DHT22;10301;50.832;4.080;2023-04-15T09:04:50;12.60;1.00
20284;DHT22;10301;50.832;4.080;2023-04-15T09:07:15;12.70;99.90
20284;DHT22;10301;50.832;4.080;2023-04-15T09:09:41;12.80;99.90
20284;DHT22;10301;50.832;4.080;2023-04-15T09:12:08;13.30;1.00
20284;DHT22;10301;50.832;4.080;2023-04-15T09:14:34;13.50;1.00
20284;DHT22;10301;50.832;4.080;2023-04-15T09:17:02;13.50;1.00
20284;DHT22;10301;50.832;4.080;2023-04-15T09:19:28;13.30;99.90
20284;DHT22;10301;50.832;4.080;2023-04-15T09:21:58;13.20;1.00
20284;DHT22;10301;50.832;4.080;2023-04-15T09:24:24;13.20;1.00
20284;DHT22;10301;50.832;4.080;2023-04-15T09:26:52;13.40;1.00
20284;DHT22;10301;50.832;4.080;2023-04-15T09:29:25;13.80;1.00
20284;DHT22;10301;50.832;4.080;2023-04-15T09:31:53;13.80;1.00
20284;DHT22;10301;50.832;4.080;2023-04-15T09:34:19;14.10;72.50
20284;DHT22;10301;50.832;4.080;2023-04-15T09:39:11;14.00;99.90
20284;DHT22;10301;50.832;4.080;2023-04-15T09:41:37;14.10;1.00
20284;DHT22;10301;50.832;4.080;2023-04-15T09:44:03;14.60;1.00
20284;DHT22;10301;50.832;4.080;2023-04-15T09:46:43;14.40;99.90
20284;DHT22;10301;50.832;4.080;2023-04-15T09:49:10;14.50;1.00
20284;DHT22;10301;50.832;4.080;2023-04-15T09:51:36;14.40;1.00
20284;DHT22;10301;50.832;4.080;2023-04-15T09:54:02;14.10;1.00
20284;DHT22;10301;50.832;4.080;2023-04-15T09:56:36;14.10;1.00
20284;DHT22;10301;50.832;4.080;2023-04-15T09:59:09;14.10;99.90
20284;DHT22;10301;50.832;4.080;2023-04-15T10:01:35;14.10;99.90
20284;DHT22;10301;50.832;4.080;2023-04-15T10:04:02;14.10;1.00
20284;DHT22;10301;50.832;4.080;2023-04-15T10:06:29;14.20;1.00
20284;DHT22;10301;50.832;4.080;2023-04-15T10:08:58;14.30;1.00
20284;DHT22;10301;50.832;4.080;2023-04-15T10:11:28;14.30;1.00
20284;DHT22;10301;50.832;4.080;2023-04-15T10:13:55;14.30;1.00
20284;DHT22;10301;50.832;4.080;2023-04-15T10:16:22;14.40;1.00
20284;DHT22;10301;50.832;4.080;2023-04-15T10:18:54;14.70;1.00
20284;DHT22;10301;50.832;4.080;2023-04-15T10:21:21;15.00;99.90
20284;DHT22;10301;50.832;4.080;2023-04-15T10:23:48;14.90;99.90
20284;DHT22;10301;50.832;4.080;2023-04-15T10:26:14;14.90;1.00
20284;DHT22;10301;50.832;4.080;2023-04-15T10:28:42;14.80;99.90
20284;DHT22;10301;50.832;4.080;2023-04-15T10:31:08;14.70;1.00
20284;DHT22;10301;50.832;4.080;2023-04-15T10:33:36;14.50;99.90
20284;DHT22;10301;50.832;4.080;2023-04-15T10:36:03;14.40;99.90
20284;DHT22;10301;50.832;4.080;2023-04-15T10:38:39;14.60;1.00
20284;DHT22;10301;50.832;4.080;2023-04-15T10:41:16;14.70;99.90
20284;DHT22;10301;50.832;4.080;2023-04-15T10:43:53;15.00;1.00
20284;DHT22;10301;50.832;4.080;2023-04-15T10:46:33;14.90;1.00
20284;DHT22;10301;50.832;4.080;2023-04-15T10:49:14;14.90;1.00
20284;DHT22;10301;50.832;4.080;2023-04-15T10:51:45;14.90;1.00
20284;DHT22;10301;50.832;4.080;2023-04-15T10:54:36;14.80;99.90
20284;DHT22;10301;50.832;4.080;2023-04-15T10:59:30;15.10;99.90
20284;DHT22;10301;50.832;4.080;2023-04-15T11:02:00;15.10;1.00
20284;DHT22;10301;50.832;4.080;2023-04-15T11:04:54;15.10;1.00
20284;DHT22;10301;50.832;4.080;2023-04-15T11:07:37;15.20;1.00
20284;DHT22;10301;50.832;4.080;2023-04-15T11:15:40;14.90;14.70
20284;DHT22;10301;50.832;4.080;2023-04-15T11:18:20;14.70;99.90
20284;DHT22;10301;50.832;4.080;2023-04-15T11:20:48;14.90;1.00
20284;DHT22;10301;50.832;4.080;2023-04-15T11:23:18;14.70;91.50
20284;DHT22;10301;50.832;4.080;2023-04-15T11:25:44;14.70;99.90
20284;DHT22;10301;50.832;4.080;2023-04-15T11:28:11;14.90;99.90
20284;DHT22;10301;50.832;4.080;2023-04-15T11:30:38;15.10;4.10
20284;DHT22;10301;50.832;4.080;2023-04-15T11:33:09;15.00;1.00
20284;DHT22;10301;50.832;4.080;2023-04-15T11:35:35;15.10;1.00
20284;DHT22;10301;50.832;4.080;2023-04-15T11:38:06;15.10;1.00
20284;DHT22;10301;50.832;4.080;2023-04-15T11:40:33;15.10;1.00
20284;DHT22;10301;50.832;4.080;2023-04-15T11:43:19;15.00;10.00
20284;DHT22;10301;50.832;4.080;2023-04-15T11:45:55;14.80;1.00
20284;DHT22;10301;50.832;4.080;2023-04-15T11:48:24;14.90;1.00
20284;DHT22;10301;50.832;4.080;2023-04-15T11:50:58;15.10;1.00
20284;DHT22;10301;50.832;4.080;2023-04-15T11:53:44;15.30;1.00
20284;DHT22;10301;50.832;4.080;2023-04-15T11:56:19;15.40;1.00
20284;DHT22;10301;50.832;4.080;2023-04-15T11:58:46;15.10;1.00
20284;DHT22;10301;50.832;4.080;2023-04-15T12:01:11;15.10;1.00
20284;DHT22;10301;50.832;4.080;2023-04-15T12:03:41;15.30;1.00
20284;DHT22;10301;50.832;4.080;2023-04-15T12:06:20;15.50;1.00
20284;DHT22;10301;50.832;4.080;2023-04-15T12:11:17;15.70;1.00
20284;DHT22;10301;50.832;4.080;2023-04-15T12:14:07;15.50;1.00
20284;DHT22;10301;50.832;4.080;2023-04-15T12:16:35;15.80;1.00
20284;DHT22;10301;50.832;4.080;2023-04-15T12:19:05;15.40;1.00
20284;DHT22;10301;50.832;4.080;2023-04-15T12:21:38;15.40;1.00
20284;DHT22;10301;50.832;4.080;2023-04-15T12:24:06;15.30;1.00
20284;DHT22;10301;50.832;4.080;2023-04-15T12:29:06;15.60;1.00
20284;DHT22;10301;50.832;4.080;2023-04-15T12:31:34;15.50;1.00
20284;DHT22;10301;50.832;4.080;2023-04-15T12:34:00;15.80;1.00
20284;DHT22;10301;50.832;4.080;2023-04-15T12:36:27;16.00;1.00
20284;DHT22;10301;50.832;4.080;2023-04-15T12:38:54;16.10;1.00
20284;DHT22;10301;50.832;4.080;2023-04-15T12:41:20;15.90;1.00
20284;DHT22;10301;50.832;4.080;2023-04-15T12:43:46;16.10;1.00
20284;DHT22;10301;50.832;4.080;2023-04-15T12:46:12;16.10;1.00
20284;DHT22;10301;50.832;4.080;2023-04-15T12:48:39;16.10;1.00
20284;DHT22;10301;50.832;4.080;2023-04-15T12:51:05;16.00;1.00
20284;DHT22;10301;50.832;4.080;2023-04-15T12:53:30;16.10;1.00
20284;DHT22;10301;50.832;4.080;2023-04-15T12:55:56;15.70;1.00
20284;DHT22;10301;50.832;4.080;2023-04-15T12:58:22;15.90;1.00
20284;DHT22;10301;50.832;4.080;2023-04-15T13:00:47;16.20;1.00
20284;DHT22;10301;50.832;4.080;2023-04-15T13:03:14;16.30;1.00
20284;DHT22;10301;50.832;4.080;2023-04-15T13:05:40;16.50;1.00
20284;DHT22;10301;50.832;4.080;2023-04-15T13:08:06;16.40;1.00
20284;DHT22;10301;50.832;4.080;2023-04-15T13:10:32;16.50;1.00
20284;DHT22;10301;50.832;4.080;2023-04-15T13:13:01;16.20;1.00
20284;DHT22;10301;50.832;4.080;2023-04-15T13:15:26;15.80;1.00
20284;DHT22;10301;50.832;4.080;2023-04-15T13:17:52;16.20;1.00
20284;DHT22;10301;50.832;4.080;2023-04-15T13:20:18;15.90;1.00
20284;DHT22;10301;50.832;4.080;2023-04-15T13:22:43;15.70;1.00
20284;DHT22;10301;50.832;4.080;2023-04-15T13:25:09;15.70;1.00
20284;DHT22;10301;50.832;4.080;2023-04-15T13:27:35;15.70;1.00
20284;DHT22;10301;50.832;4.080;2023-04-15T13:30:00;15.80;1.00
20284;DHT22;10301;50.832;4.080;2023-04-15T13:32:26;15.60;1.00
20284;DHT22;10301;50.832;4.080;2023-04-15T13:34:52;16.00;1.00
20284;DHT22;10301;50.832;4.080;2023-04-15T13:37:19;16.30;1.00
20284;DHT22;10301;50.832;4.080;2023-04-15T13:39:45;16.30;1.00
20284;DHT22;10301;50.832;4.080;2023-04-15T13:42:11;16.40;1.00
20284;DHT22;10301;50.832;4.080;2023-04-15T13:44:36;16.10;1.00
20284;DHT22;10301;50.832;4.080;2023-04-15T13:47:02;15.70;1.00
20284;DHT22;10301;50.832;4.080;2023-04-15T13:49:28;15.80;1.00
20284;DHT22;10301;50.832;4.080;2023-04-15T13:51:54;15.80;1.00
20284;DHT22;10301;50.832;4.080;2023-04-15T13:54:19;15.80;1.00
20284;DHT22;10301;50.832;4.080;2023-04-15T13:56:45;16.00;1.00
20284;DHT22;10301;50.832;4.080;2023-04-15T13:59:11;16.10;1.00
20284;DHT22;10301;50.832;4.080;2023-04-15T14:01:37;16.20;1.00
20284;DHT22;10301;50.832;4.080;2023-04-15T14:04:03;16.40;1.00
20284;DHT22;10301;50.832;4.080;2023-04-15T14:06:29;16.30;1.00
20284;DHT22;10301;50.832;4.080;2023-04-15T14:08:56;16.30;1.00
20284;DHT22;10301;50.832;4.080;2023-04-15T14:11:21;15.90;1.00
20284;DHT22;10301;50.832;4.080;2023-04-15T14:13:47;15.90;1.00
20284;DHT22;10301;50.832;4.080;2023-04-15T14:16:12;15.80;1.00
20284;DHT22;10301;50.832;4.080;2023-04-15T14:18:39;16.00;1.00
20284;DHT22;10301;50.832;4.080;2023-04-15T14:21:05;16.30;1.00
20284;DHT22;10301;50.832;4.080;2023-04-15T14:23:31;16.00;1.00
20284;DHT22;10301;50.832;4.080;2023-04-15T14:25:57;15.70;1.00
20284;DHT22;10301;50.832;4.080;2023-04-15T14:28:23;15.70;1.00
20284;DHT22;10301;50.832;4.080;2023-04-15T14:30:49;15.80;1.00
20284;DHT22;10301;50.832;4.080;2023-04-15T14:33:15;16.00;1.00
20284;DHT22;10301;50.832;4.080;2023-04-15T14:35:41;16.10;1.00
20284;DHT22;10301;50.832;4.080;2023-04-15T14:38:06;16.10;1.00
20284;DHT22;10301;50.832;4.080;2023-04-15T14:40:35;16.00;1.00
20284;DHT22;10301;50.832;4.080;2023-04-15T14:43:01;15.80;1.00
20284;DHT22;10301;50.832;4.080;2023-04-15T14:45:27;16.00;1.00
20284;DHT22;10301;50.832;4.080;2023-04-15T14:47:52;16.10;1.00
20284;DHT22;10301;50.832;4.080;2023-04-15T14:50:18;16.30;1.00
20284;DHT22;10301;50.832;4.080;2023-04-15T14:52:44;16.40;1.00
20284;DHT22;10301;50.832;4.080;2023-04-15T14:55:11;16.30;1.00
20284;DHT22;10301;50.832;4.080;2023-04-15T14:57:38;16.20;1.00
20284;DHT22;10301;50.832;4.080;2023-04-15T15:00:04;16.40;1.00
20284;DHT22;10301;50.832;4.080;2023-04-15T15:02:34;16.30;1.00
20284;DHT22;10301;50.832;4.080;2023-04-15T15:05:01;16.20;1.00
20284;DHT22;10301;50.832;4.080;2023-04-15T15:07:27;15.70;91.70
20284;DHT22;10301;50.832;4.080;2023-04-15T15:09:53;15.80;99.90
20284;DHT22;10301;50.832;4.080;2023-04-15T15:12:19;16.00;99.90
20284;DHT22;10301;50.832;4.080;2023-04-15T15:14:47;16.20;99.90
20284;DHT22;10301;50.832;4.080;2023-04-15T15:17:13;16.60;1.00
20284;DHT22;10301;50.832;4.080;2023-04-15T15:19:39;16.70;1.00
20284;DHT22;10301;50.832;4.080;2023-04-15T15:22:04;16.60;99.90
20284;DHT22;10301;50.832;4.080;2023-04-15T15:24:30;16.60;99.90
20284;DHT22;10301;50.832;4.080;2023-04-15T15:26:56;16.70;1.00
20284;DHT22;10301;50.832;4.080;2023-04-15T15:29:22;16.60;1.00
20284;DHT22;10301;50.832;4.080;2023-04-15T15:31:48;16.40;1.00
20284;DHT22;10301;50.832;4.080;2023-04-15T15:34:14;16.40;1.00
20284;DHT22;10301;50.832;4.080;2023-04-15T15:36:40;16.20;27.10
20284;DHT22;10301;50.832;4.080;2023-04-15T15:39:06;16.00;48.70
20284;DHT22;10301;50.832;4.080;2023-04-15T15:41:32;15.70;1.00
20284;DHT22;10301;50.832;4.080;2023-04-15T15:43:58;15.70;99.90
20284;DHT22;10301;50.832;4.080;2023-04-15T15:46:24;15.70;1.00
20284;DHT22;10301;50.832;4.080;2023-04-15T15:48:50;15.70;1.00
20284;DHT22;10301;50.832;4.080;2023-04-15T15:51:16;15.60;99.90
20284;DHT22;10301;50.832;4.080;2023-04-15T15:53:42;15.70;4.60